createdAt,value
2023-02-25T00:00:25.936Z,3.79
2023-02-25T00:01:25.895Z,3.62
2023-02-25T00:02:25.959Z,4.12
2023-02-25T00:03:25.892Z,4.72
2023-02-25T00:04:25.875Z,4.23
2023-02-25T00:05:25.834Z,4.17
2023-02-25T00:06:25.791Z,4.73
2023-02-25T00:07:25.789Z,4.25
2023-02-25T00:08:25.777Z,4.30
2023-02-25T00:09:25.767Z,3.66
2023-02-25T00:10:25.787Z,4.85
2023-02-25T00:11:25.716Z,3.86
2023-02-25T00:12:25.667Z,4.08
2023-02-25T00:13:25.656Z,5.05
2023-02-25T00:14:25.677Z,4.52
2023-02-25T00:15:25.625Z,4.47
2023-02-25T00:16:26.059Z,4.75
2023-02-25T00:17:25.553Z,4.36
2023-02-25T00:18:25.563Z,4.62
2023-02-25T00:19:25.525Z,5.00
2023-02-25T00:20:25.534Z,4.34
2023-02-25T00:21:25.475Z,4.34
2023-02-25T00:22:25.468Z,4.87
2023-02-25T00:23:25.413Z,4.65
2023-02-25T00:24:25.404Z,4.32
2023-02-25T00:25:25.395Z,4.29
2023-02-25T00:26:25.485Z,3.97
2023-02-25T00:27:25.310Z,4.14
2023-02-25T00:28:25.294Z,3.95
2023-02-25T00:29:25.271Z,3.98
2023-02-25T00:30:25.252Z,4.79
2023-02-25T00:31:25.353Z,4.05
2023-02-25T00:32:25.465Z,4.49
2023-02-25T00:33:25.190Z,4.03
2023-02-25T00:34:25.152Z,4.52
2023-02-25T00:35:25.153Z,4.77
2023-02-25T00:36:25.385Z,4.53
2023-02-25T00:37:25.089Z,4.64
2023-02-25T00:38:25.064Z,4.01
2023-02-25T00:39:25.046Z,4.21
2023-02-25T00:40:25.031Z,5.00
2023-02-25T00:41:25.016Z,4.56
2023-02-25T00:42:25.018Z,3.99
2023-02-25T00:43:24.988Z,4.43
2023-02-25T00:44:24.961Z,4.75
2023-02-25T00:45:24.986Z,4.76
2023-02-25T00:46:25.325Z,4.17
2023-02-25T00:47:24.895Z,4.22
2023-02-25T00:48:24.861Z,5.14
2023-02-25T00:49:32.138Z,4.38
2023-02-25T00:50:25.852Z,5.00
2023-02-25T00:51:24.816Z,4.66
2023-02-25T00:52:24.817Z,4.47
2023-02-25T00:53:24.776Z,4.90
2023-02-25T00:54:24.755Z,4.56
2023-02-25T00:55:24.751Z,4.14
2023-02-25T00:56:25.022Z,4.49
2023-02-25T00:57:24.709Z,3.96
2023-02-25T00:58:24.676Z,4.14
2023-02-25T00:59:24.688Z,4.75
2023-02-25T01:00:24.656Z,5.15
2023-02-25T01:01:24.646Z,4.47
2023-02-25T01:02:24.687Z,3.96
2023-02-25T01:03:24.596Z,4.32
2023-02-25T01:04:24.568Z,3.97
2023-02-25T01:05:24.556Z,3.84
2023-02-25T01:06:24.745Z,4.31
2023-02-25T01:07:24.522Z,4.27
2023-02-25T01:08:24.491Z,4.17
2023-02-25T01:09:24.470Z,4.51
2023-02-25T01:10:24.456Z,4.28
2023-02-25T01:11:24.452Z,4.55
2023-02-25T01:12:24.416Z,4.44
2023-02-25T01:13:24.370Z,4.85
2023-02-25T01:14:24.342Z,4.41
2023-02-25T01:15:24.553Z,4.46
2023-02-25T01:16:24.889Z,4.12
2023-02-25T01:17:24.295Z,4.72
2023-02-25T01:18:24.273Z,4.15
2023-02-25T01:19:24.241Z,4.79
2023-02-25T01:20:24.226Z,4.51
2023-02-25T01:21:24.203Z,4.48
2023-02-25T01:22:24.189Z,4.06
2023-02-25T01:23:24.144Z,4.59
2023-02-25T01:24:24.118Z,4.71
2023-02-25T01:25:24.089Z,3.89
2023-02-25T01:26:24.407Z,4.57
2023-02-25T01:27:24.037Z,4.27
2023-02-25T01:28:23.996Z,4.73
2023-02-25T01:29:23.988Z,4.95
2023-02-25T01:30:23.963Z,4.67
2023-02-25T01:31:24.052Z,4.39
2023-02-25T01:32:24.007Z,4.58
2023-02-25T01:33:23.893Z,3.83
2023-02-25T01:34:23.864Z,4.02
2023-02-25T01:35:23.865Z,4.42
2023-02-25T01:36:24.364Z,4.08
2023-02-25T01:37:23.794Z,4.84
2023-02-25T01:38:23.776Z,3.78
2023-02-25T01:39:25.799Z,4.64
2023-02-25T01:40:23.865Z,4.79
2023-02-25T01:41:23.857Z,3.90
2023-02-25T01:42:23.824Z,4.89
2023-02-25T01:43:23.801Z,4.32
2023-02-25T01:44:23.815Z,3.90
2023-02-25T01:45:23.772Z,3.66
2023-02-25T01:46:24.208Z,4.77
2023-02-25T01:47:23.760Z,4.19
2023-02-25T01:48:23.659Z,3.96
2023-02-25T01:49:23.673Z,4.30
2023-02-25T01:50:23.621Z,4.17
2023-02-25T01:51:23.629Z,4.03
2023-02-25T01:52:23.574Z,4.24
2023-02-25T01:53:23.585Z,3.89
2023-02-25T01:54:23.597Z,4.79
2023-02-25T01:55:23.646Z,4.23
2023-02-25T01:56:24.045Z,4.08
2023-02-25T01:57:23.666Z,4.66
2023-02-25T01:58:23.635Z,4.12
2023-02-25T01:59:23.588Z,4.14
2023-02-25T02:00:23.560Z,4.20
2023-02-25T02:01:23.546Z,4.55
2023-02-25T02:02:23.569Z,3.99
2023-02-25T02:03:23.464Z,4.05
2023-02-25T02:04:23.491Z,4.34
2023-02-25T02:05:23.513Z,4.18
2023-02-25T02:06:23.956Z,3.85
2023-02-25T02:07:23.558Z,3.79
2023-02-25T02:08:23.518Z,4.84
2023-02-25T02:09:23.484Z,4.31
2023-02-25T02:10:23.452Z,4.17
2023-02-25T02:11:23.434Z,3.85
2023-02-25T02:12:23.416Z,3.74
2023-02-25T02:13:23.416Z,4.15
2023-02-25T02:14:23.449Z,4.64
2023-02-25T02:15:23.478Z,3.96
2023-02-25T02:16:23.861Z,4.52
2023-02-25T02:17:23.501Z,4.28
2023-02-25T02:18:23.469Z,4.05
2023-02-25T02:19:23.472Z,3.86
2023-02-25T02:20:23.429Z,4.49
2023-02-25T02:21:23.401Z,3.94
2023-02-25T02:22:23.392Z,4.32
2023-02-25T02:23:23.376Z,3.95
2023-02-25T02:24:23.389Z,4.19
2023-02-25T02:25:23.423Z,3.96
2023-02-25T02:26:23.869Z,4.15
2023-02-25T02:27:23.445Z,4.35
2023-02-25T02:28:23.383Z,4.51
2023-02-25T02:29:23.362Z,4.09
2023-02-25T02:30:23.338Z,3.62
2023-02-25T02:31:23.364Z,3.87
2023-02-25T02:32:23.537Z,4.16
2023-02-25T02:33:23.250Z,3.89
2023-02-25T02:34:23.233Z,3.86
2023-02-25T02:35:23.215Z,4.60
2023-02-25T02:36:23.523Z,4.70
2023-02-25T02:37:23.154Z,4.37
2023-02-25T02:38:23.121Z,3.48
2023-02-25T02:39:23.087Z,4.44
2023-02-25T02:40:23.070Z,4.47
2023-02-25T02:41:23.031Z,2.97
2023-02-25T02:42:23.031Z,4.11
2023-02-25T02:43:22.970Z,3.29
2023-02-25T02:44:22.965Z,3.28
2023-02-25T02:45:23.049Z,3.65
2023-02-25T02:46:23.243Z,3.39
2023-02-25T02:47:22.889Z,3.01
2023-02-25T02:48:22.859Z,3.30
2023-02-25T02:49:22.898Z,3.06
2023-02-25T02:50:22.824Z,3.43
2023-02-25T02:51:22.811Z,2.88
2023-02-25T02:52:22.780Z,2.44
2023-02-25T02:53:22.742Z,2.31
2023-02-25T02:54:22.741Z,2.40
2023-02-25T02:55:22.712Z,2.50
2023-02-25T02:56:23.083Z,2.24
2023-02-25T02:57:22.674Z,2.04
2023-02-25T02:58:22.671Z,2.06
2023-02-25T02:59:22.734Z,2.27
2023-02-25T03:00:22.603Z,2.04
2023-02-25T03:01:22.645Z,1.94
2023-02-25T03:02:22.607Z,2.04
2023-02-25T03:03:22.539Z,1.97
2023-02-25T03:04:22.649Z,2.28
2023-02-25T03:05:22.501Z,1.56
2023-02-25T03:06:22.880Z,1.50
2023-02-25T03:07:22.465Z,1.88
2023-02-25T03:08:22.435Z,1.89
2023-02-25T03:09:22.431Z,1.42
2023-02-25T03:10:22.385Z,1.59
2023-02-25T03:11:22.366Z,1.69
2023-02-25T03:12:22.356Z,1.59
2023-02-25T03:13:22.367Z,1.74
2023-02-25T03:14:22.319Z,1.40
2023-02-25T03:15:22.280Z,1.83
2023-02-25T03:16:22.591Z,1.24
2023-02-25T03:17:22.263Z,1.60
2023-02-25T03:18:22.268Z,1.10
2023-02-25T03:19:22.224Z,1.35
2023-02-25T03:20:22.201Z,1.41
2023-02-25T03:21:22.195Z,1.32
2023-02-25T03:22:22.226Z,1.38
2023-02-25T03:23:22.171Z,1.14
2023-02-25T03:24:22.138Z,1.09
2023-02-25T03:25:22.124Z,1.21
2023-02-25T03:26:22.365Z,1.14
2023-02-25T03:27:22.106Z,1.51
2023-02-25T03:28:22.084Z,1.51
2023-02-25T03:29:22.058Z,1.56
2023-02-25T03:30:22.050Z,1.17
2023-02-25T03:31:22.060Z,0.94
2023-02-25T03:32:22.104Z,1.31
2023-02-25T03:33:22.052Z,1.05
2023-02-25T03:34:22.013Z,1.10
2023-02-25T03:35:22.004Z,1.15
2023-02-25T03:36:22.341Z,1.22
2023-02-25T03:37:21.995Z,1.08
2023-02-25T03:38:21.960Z,0.93
2023-02-25T03:39:21.953Z,1.23
2023-02-25T03:40:21.920Z,1.53
2023-02-25T03:41:21.936Z,1.23
2023-02-25T03:42:21.927Z,1.24
2023-02-25T03:43:21.921Z,0.96
2023-02-25T03:44:21.905Z,0.98
2023-02-25T03:45:21.868Z,1.41
2023-02-25T03:46:22.377Z,1.33
2023-02-25T03:47:21.841Z,2.07
2023-02-25T03:48:21.846Z,2.44
2023-02-25T03:49:21.850Z,2.71
2023-02-25T03:50:21.813Z,3.23
2023-02-25T03:51:21.785Z,3.41
2023-02-25T03:52:21.791Z,3.45
2023-02-25T03:53:21.778Z,3.66
2023-02-25T03:54:21.727Z,4.04
2023-02-25T03:55:21.710Z,4.23
2023-02-25T03:56:22.079Z,3.53
2023-02-25T03:57:21.683Z,3.59
2023-02-25T03:58:21.728Z,3.37
2023-02-25T03:59:21.675Z,3.42
2023-02-25T04:00:21.649Z,3.64
2023-02-25T04:01:21.662Z,2.97
2023-02-25T04:02:21.657Z,2.94
2023-02-25T04:03:21.641Z,3.11
2023-02-25T04:04:21.662Z,2.86
2023-02-25T04:05:21.601Z,2.37
2023-02-25T04:06:21.867Z,2.13
2023-02-25T04:07:21.570Z,2.67
2023-02-25T04:08:21.576Z,2.14
2023-02-25T04:09:21.586Z,2.40
2023-02-25T04:10:21.546Z,2.31
2023-02-25T04:11:21.511Z,2.22
2023-02-25T04:12:21.506Z,2.12
2023-02-25T04:13:21.506Z,2.00
2023-02-25T04:14:21.497Z,1.83
2023-02-25T04:15:21.481Z,2.36
2023-02-25T04:16:21.794Z,1.87
2023-02-25T04:17:21.451Z,1.75
2023-02-25T04:18:21.433Z,1.60
2023-02-25T04:19:21.443Z,1.82
2023-02-25T04:20:21.397Z,1.24
2023-02-25T04:21:21.395Z,1.87
2023-02-25T04:22:21.424Z,1.20
2023-02-25T04:23:21.410Z,1.37
2023-02-25T04:24:21.387Z,1.42
2023-02-25T04:25:21.377Z,1.19
2023-02-25T04:26:21.550Z,1.04
2023-02-25T04:27:21.350Z,1.52
2023-02-25T04:28:21.307Z,1.46
2023-02-25T04:29:21.332Z,1.13
2023-02-25T04:30:21.335Z,1.37
2023-02-25T04:31:21.437Z,1.16
2023-02-25T04:32:21.388Z,1.14
2023-02-25T04:33:21.314Z,0.96
2023-02-25T04:34:21.282Z,1.14
2023-02-25T04:35:21.279Z,1.44
2023-02-25T04:36:21.492Z,1.08
2023-02-25T04:37:21.248Z,1.06
2023-02-25T04:38:21.215Z,1.20
2023-02-25T04:39:21.195Z,0.90
2023-02-25T04:40:21.173Z,1.03
2023-02-25T04:41:21.140Z,1.08
2023-02-25T04:42:21.148Z,1.14
2023-02-25T04:43:21.120Z,1.05
2023-02-25T04:44:21.158Z,0.82
2023-02-25T04:45:21.066Z,1.14
2023-02-25T04:46:21.572Z,0.96
2023-02-25T04:47:21.033Z,0.80
2023-02-25T04:48:21.033Z,0.73
2023-02-25T04:49:20.998Z,1.15
2023-02-25T04:50:21.032Z,0.90
2023-02-25T04:51:20.959Z,0.73
2023-02-25T04:52:20.946Z,1.00
2023-02-25T04:53:20.938Z,0.93
2023-02-25T04:54:20.910Z,1.03
2023-02-25T04:55:20.915Z,0.94
2023-02-25T04:56:21.010Z,0.99
2023-02-25T04:57:20.858Z,1.02
2023-02-25T04:58:20.871Z,1.02
2023-02-25T04:59:20.851Z,1.28
2023-02-25T05:00:20.828Z,0.67
2023-02-25T05:01:20.865Z,0.84
2023-02-25T05:02:20.813Z,0.86
2023-02-25T05:03:20.819Z,0.86
2023-02-25T05:04:20.774Z,0.97
2023-02-25T05:05:20.764Z,0.74
2023-02-25T05:06:20.866Z,0.97
2023-02-25T05:07:20.734Z,0.78
2023-02-25T05:08:20.715Z,1.00
2023-02-25T05:09:20.693Z,0.67
2023-02-25T05:10:20.699Z,0.89
2023-02-25T05:11:20.670Z,0.66
2023-02-25T05:12:20.657Z,0.94
2023-02-25T05:13:20.631Z,0.96
2023-02-25T05:14:20.632Z,0.71
2023-02-25T05:15:20.603Z,0.77
2023-02-25T05:16:20.689Z,0.80
2023-02-25T05:17:20.565Z,0.77
2023-02-25T05:18:20.613Z,0.47
2023-02-25T05:19:20.554Z,0.93
2023-02-25T05:20:20.583Z,0.69
2023-02-25T05:21:20.528Z,1.08
2023-02-25T05:22:20.526Z,0.66
2023-02-25T05:23:20.526Z,0.47
2023-02-25T05:24:20.516Z,0.72
2023-02-25T05:25:20.494Z,0.86
2023-02-25T05:26:20.758Z,0.63
2023-02-25T05:27:20.460Z,0.50
2023-02-25T05:28:20.439Z,0.81
2023-02-25T05:29:20.436Z,0.88
2023-02-25T05:30:20.429Z,0.97
2023-02-25T05:31:20.529Z,0.65
2023-02-25T05:32:20.553Z,0.93
2023-02-25T05:33:20.379Z,0.99
2023-02-25T05:34:20.379Z,1.13
2023-02-25T05:35:20.390Z,1.50
2023-02-25T05:36:20.426Z,1.05
2023-02-25T05:37:20.318Z,1.56
2023-02-25T05:38:20.308Z,1.81
2023-02-25T05:39:20.276Z,1.57
2023-02-25T05:40:20.284Z,1.49
2023-02-25T05:41:20.277Z,1.17
2023-02-25T05:42:20.250Z,1.09
2023-02-25T05:43:20.266Z,1.26
2023-02-25T05:44:20.232Z,1.36
2023-02-25T05:45:20.232Z,1.73
2023-02-25T05:46:20.298Z,0.99
2023-02-25T05:47:20.193Z,1.21
2023-02-25T05:48:20.194Z,1.71
2023-02-25T05:49:20.192Z,1.69
2023-02-25T05:50:20.186Z,2.23
2023-02-25T05:51:20.142Z,2.23
2023-02-25T05:52:20.152Z,2.46
2023-02-25T05:53:20.114Z,2.53
2023-02-25T05:54:20.112Z,2.50
2023-02-25T05:55:20.118Z,2.62
2023-02-25T05:56:20.073Z,2.31
2023-02-25T05:57:20.082Z,2.84
2023-02-25T05:58:20.056Z,2.54
2023-02-25T05:59:20.042Z,2.02
2023-02-25T06:00:20.013Z,2.47
2023-02-25T06:01:20.020Z,2.81
2023-02-25T06:02:20.074Z,2.58
2023-02-25T06:03:20.035Z,2.67
2023-02-25T06:04:19.959Z,2.19
2023-02-25T06:05:19.951Z,2.51
2023-02-25T06:06:19.954Z,2.46
2023-02-25T06:07:19.925Z,2.48
2023-02-25T06:08:19.939Z,2.86
2023-02-25T06:09:19.904Z,2.24
2023-02-25T06:10:19.896Z,2.22
2023-02-25T06:11:19.906Z,2.19
2023-02-25T06:12:19.869Z,1.98
2023-02-25T06:13:19.858Z,2.20
2023-02-25T06:14:19.884Z,2.55
2023-02-25T06:15:19.844Z,2.30
2023-02-25T06:16:19.895Z,1.76
2023-02-25T06:17:19.806Z,1.86
2023-02-25T06:18:19.785Z,1.79
2023-02-25T06:19:19.782Z,1.97
2023-02-25T06:20:19.776Z,2.00
2023-02-25T06:21:19.808Z,2.25
2023-02-25T06:22:19.769Z,1.90
2023-02-25T06:23:19.745Z,1.86
2023-02-25T06:24:19.736Z,2.50
2023-02-25T06:25:19.731Z,2.36
2023-02-25T06:26:19.726Z,1.99
2023-02-25T06:27:19.673Z,2.38
2023-02-25T06:28:19.656Z,1.87
2023-02-25T06:29:19.673Z,1.84
2023-02-25T06:30:19.635Z,1.76
2023-02-25T06:31:19.722Z,2.44
2023-02-25T06:32:19.767Z,2.34
2023-02-25T06:33:19.560Z,2.52
2023-02-25T06:34:19.543Z,2.28
2023-02-25T06:35:19.539Z,1.96
2023-02-25T06:36:19.531Z,2.28
2023-02-25T06:37:19.502Z,2.41
2023-02-25T06:38:19.468Z,2.12
2023-02-25T06:39:19.491Z,1.91
2023-02-25T06:40:19.448Z,1.92
2023-02-25T06:41:19.454Z,2.07
2023-02-25T06:42:19.442Z,1.89
2023-02-25T06:43:19.436Z,2.07
2023-02-25T06:44:19.395Z,4.18
2023-02-25T06:45:19.368Z,2.10
2023-02-25T06:46:19.407Z,2.04
2023-02-25T06:47:19.346Z,1.97
2023-02-25T06:48:19.326Z,1.38
2023-02-25T06:49:19.319Z,1.75
2023-02-25T06:50:19.337Z,2.02
2023-02-25T06:51:19.286Z,2.10
2023-02-25T06:52:19.290Z,1.70
2023-02-25T06:53:19.254Z,1.43
2023-02-25T06:54:19.237Z,1.83
2023-02-25T06:55:19.217Z,1.69
2023-02-25T06:56:19.208Z,1.48
2023-02-25T06:57:19.187Z,1.69
2023-02-25T06:58:19.151Z,1.50
2023-02-25T06:59:19.161Z,1.24
2023-02-25T07:00:19.111Z,1.39
2023-02-25T07:01:19.172Z,1.55
2023-02-25T07:02:19.104Z,2.04
2023-02-25T07:03:19.089Z,1.73
2023-02-25T07:04:19.081Z,1.75
2023-02-25T07:05:19.041Z,1.81
2023-02-25T07:06:19.019Z,2.15
2023-02-25T07:07:19.037Z,1.75
2023-02-25T07:08:18.992Z,1.66
2023-02-25T07:09:18.968Z,2.21
2023-02-25T07:10:18.962Z,2.04
2023-02-25T07:11:18.926Z,2.22
2023-02-25T07:12:18.918Z,1.77
2023-02-25T07:13:18.886Z,2.07
2023-02-25T07:14:18.869Z,1.83
2023-02-25T07:15:18.841Z,1.59
2023-02-25T07:16:18.994Z,1.69
2023-02-25T07:17:18.813Z,1.54
2023-02-25T07:18:18.800Z,1.51
2023-02-25T07:19:18.767Z,1.45
2023-02-25T07:20:18.760Z,1.47
2023-02-25T07:21:18.758Z,1.94
2023-02-25T07:22:18.746Z,1.30
2023-02-25T07:23:18.720Z,2.12
2023-02-25T07:24:18.704Z,1.49
2023-02-25T07:25:18.745Z,1.51
2023-02-25T07:26:18.671Z,1.44
2023-02-25T07:27:18.674Z,1.60
2023-02-25T07:28:18.626Z,1.38
2023-02-25T07:29:18.614Z,1.74
2023-02-25T07:30:18.586Z,1.63
2023-02-25T07:31:18.781Z,1.45
2023-02-25T07:32:18.820Z,1.55
2023-02-25T07:33:18.562Z,1.39
2023-02-25T07:34:18.529Z,1.54
2023-02-25T07:35:18.533Z,0.89
2023-02-25T07:36:18.496Z,1.18
2023-02-25T07:37:18.474Z,1.03
2023-02-25T07:38:18.473Z,1.23
2023-02-25T07:39:18.460Z,1.33
2023-02-25T07:40:18.438Z,1.20
2023-02-25T07:41:18.442Z,0.92
2023-02-25T07:42:18.404Z,0.96
2023-02-25T07:43:18.429Z,0.97
2023-02-25T07:44:18.401Z,1.18
2023-02-25T07:45:18.378Z,0.88
2023-02-25T07:46:18.412Z,0.90
2023-02-25T07:47:18.350Z,0.87
2023-02-25T07:48:18.385Z,0.91
2023-02-25T07:49:18.316Z,1.04
2023-02-25T07:50:18.323Z,1.02
2023-02-25T07:51:18.312Z,1.24
2023-02-25T07:52:18.281Z,1.11
2023-02-25T07:53:18.281Z,1.92
2023-02-25T07:54:18.256Z,2.00
2023-02-25T07:55:18.254Z,1.83
2023-02-25T07:56:18.236Z,2.04
2023-02-25T07:57:18.209Z,1.80
2023-02-25T07:58:18.249Z,1.64
2023-02-25T07:59:18.222Z,2.34
2023-02-25T08:00:18.193Z,1.81
2023-02-25T08:01:18.202Z,1.87
2023-02-25T08:02:18.159Z,1.90
2023-02-25T08:03:18.165Z,1.85
2023-02-25T08:04:18.190Z,1.56
2023-02-25T08:05:18.121Z,1.73
2023-02-25T08:06:18.127Z,2.04
2023-02-25T08:07:18.098Z,1.60
2023-02-25T08:08:18.148Z,1.49
2023-02-25T08:09:18.105Z,1.48
2023-02-25T08:10:18.091Z,1.46
2023-02-25T08:11:18.086Z,1.97
2023-02-25T08:12:18.062Z,2.48
2023-02-25T08:13:18.087Z,2.42
2023-02-25T08:14:18.058Z,2.39
2023-02-25T08:15:18.068Z,3.01
2023-02-25T08:16:18.144Z,3.01
2023-02-25T08:17:18.024Z,2.61
2023-02-25T08:18:18.067Z,3.00
2023-02-25T08:19:18.014Z,2.93
2023-02-25T08:20:18.012Z,2.73
2023-02-25T08:21:18.095Z,2.52
2023-02-25T08:22:17.991Z,2.71
2023-02-25T08:23:17.992Z,2.73
2023-02-25T08:24:17.953Z,2.21
2023-02-25T08:25:17.960Z,2.37
2023-02-25T08:26:17.959Z,2.54
2023-02-25T08:27:17.933Z,2.39
2023-02-25T08:28:17.913Z,2.40
2023-02-25T08:29:17.922Z,2.21
2023-02-25T08:30:17.890Z,2.28
2023-02-25T08:31:18.005Z,2.73
2023-02-25T08:32:17.968Z,2.64
2023-02-25T08:33:17.831Z,2.11
2023-02-25T08:34:17.832Z,2.80
2023-02-25T08:35:17.814Z,2.29
2023-02-25T08:36:17.818Z,2.26
2023-02-25T08:37:17.766Z,2.62
2023-02-25T08:38:17.770Z,2.62
2023-02-25T08:39:17.739Z,1.75
2023-02-25T08:40:19.877Z,1.94
2023-02-25T08:41:17.708Z,1.85
2023-02-25T08:42:17.683Z,2.38
2023-02-25T08:43:17.676Z,1.70
2023-02-25T08:44:17.679Z,2.06
2023-02-25T08:45:17.654Z,2.02
2023-02-25T08:46:19.933Z,2.35
2023-02-25T08:47:17.610Z,2.02
2023-02-25T08:48:17.612Z,1.85
2023-02-25T08:49:17.593Z,2.33
2023-02-25T08:50:17.581Z,2.11
2023-02-25T08:51:17.544Z,1.84
2023-02-25T08:52:17.518Z,1.81
2023-02-25T08:53:17.512Z,1.75
2023-02-25T08:54:17.515Z,1.79
2023-02-25T08:55:17.484Z,1.92
2023-02-25T08:56:17.481Z,1.61
2023-02-25T08:57:17.464Z,2.21
2023-02-25T08:58:17.448Z,1.97
2023-02-25T08:59:17.466Z,1.72
2023-02-25T09:00:17.435Z,2.09
2023-02-25T09:01:17.465Z,2.21
2023-02-25T09:02:17.386Z,1.82
2023-02-25T09:03:17.399Z,1.81
2023-02-25T09:04:17.441Z,2.10
2023-02-25T09:05:19.599Z,1.89
2023-02-25T09:06:17.323Z,2.02
2023-02-25T09:07:17.344Z,1.71
2023-02-25T09:08:17.294Z,2.07
2023-02-25T09:09:17.312Z,1.66
2023-02-25T09:10:17.255Z,2.09
2023-02-25T09:11:17.272Z,1.65
2023-02-25T09:12:17.214Z,1.66
2023-02-25T09:13:17.225Z,1.74
2023-02-25T09:14:17.228Z,2.20
2023-02-25T09:15:17.162Z,2.01
2023-02-25T09:16:19.861Z,1.76
2023-02-25T09:17:17.132Z,1.77
2023-02-25T09:18:17.112Z,1.41
2023-02-25T09:19:17.109Z,1.89
2023-02-25T09:20:17.108Z,1.47
2023-02-25T09:21:17.076Z,1.73
2023-02-25T09:22:17.066Z,1.77
2023-02-25T09:23:17.035Z,2.11
2023-02-25T09:24:17.005Z,1.68
2023-02-25T09:25:17.004Z,1.76
2023-02-25T09:26:16.987Z,2.01
2023-02-25T09:27:16.950Z,2.13
2023-02-25T09:28:16.924Z,1.74
2023-02-25T09:29:16.911Z,1.44
2023-02-25T09:30:16.921Z,2.00
2023-02-25T09:31:17.019Z,1.56
2023-02-25T09:32:16.972Z,1.84
2023-02-25T09:33:16.845Z,1.86
2023-02-25T09:34:16.849Z,1.72
2023-02-25T09:35:16.845Z,1.54
2023-02-25T09:36:16.797Z,1.88
2023-02-25T09:37:16.763Z,1.92
2023-02-25T09:38:16.772Z,1.61
2023-02-25T09:39:16.734Z,2.06
2023-02-25T09:40:16.720Z,1.54
2023-02-25T09:41:16.689Z,1.70
2023-02-25T09:42:16.666Z,1.91
2023-02-25T09:43:16.643Z,1.53
2023-02-25T09:44:16.638Z,1.71
2023-02-25T09:45:16.630Z,1.66
2023-02-25T09:46:16.651Z,1.93
2023-02-25T09:47:16.612Z,1.37
2023-02-25T09:48:16.567Z,1.50
2023-02-25T09:49:16.545Z,1.48
2023-02-25T09:50:16.539Z,1.83
2023-02-25T09:51:16.492Z,1.77
2023-02-25T09:52:16.474Z,1.60
2023-02-25T09:53:16.457Z,1.87
2023-02-25T09:54:16.424Z,1.81
2023-02-25T09:55:16.419Z,1.76
2023-02-25T09:56:16.381Z,1.64
2023-02-25T09:57:16.369Z,1.69
2023-02-25T09:58:16.358Z,1.53
2023-02-25T09:59:16.343Z,1.52
2023-02-25T10:00:16.333Z,1.65
2023-02-25T10:01:16.297Z,1.62
2023-02-25T10:02:16.425Z,1.43
2023-02-25T10:03:16.335Z,1.45
2023-02-25T10:04:16.217Z,1.68
2023-02-25T10:05:16.239Z,1.24
2023-02-25T10:06:16.193Z,2.03
2023-02-25T10:07:16.191Z,1.77
2023-02-25T10:08:16.151Z,1.81
2023-02-25T10:09:16.149Z,1.33
2023-02-25T10:10:16.127Z,1.46
2023-02-25T10:11:16.144Z,1.95
2023-02-25T10:12:16.091Z,1.65
2023-02-25T10:13:16.111Z,1.60
2023-02-25T10:14:16.050Z,1.61
2023-02-25T10:15:16.044Z,1.53
2023-02-25T10:16:16.086Z,1.68
2023-02-25T10:17:15.990Z,1.78
2023-02-25T10:18:15.960Z,1.45
2023-02-25T10:19:15.962Z,2.05
2023-02-25T10:20:15.920Z,1.64
2023-02-25T10:21:15.927Z,1.87
2023-02-25T10:22:15.885Z,1.76
2023-02-25T10:23:15.845Z,1.58
2023-02-25T10:24:15.830Z,1.59
2023-02-25T10:25:15.809Z,1.60
2023-02-25T10:26:15.804Z,1.25
2023-02-25T10:27:15.783Z,1.69
2023-02-25T10:29:15.748Z,1.59
2023-02-25T11:56:13.695Z,1.39
2023-02-25T11:57:13.709Z,1.38
2023-02-25T11:58:13.677Z,1.43
2023-02-25T11:59:13.635Z,1.49
2023-02-25T12:00:13.628Z,1.62
2023-02-25T12:01:13.592Z,1.40
2023-02-25T12:02:13.600Z,1.30
2023-02-25T12:03:13.535Z,1.19
2023-02-25T12:04:13.524Z,1.47
2023-02-25T12:05:13.505Z,1.39
2023-02-25T12:06:13.488Z,1.27
2023-02-25T12:07:13.500Z,1.54
2023-02-25T12:08:14.377Z,1.01
2023-02-25T12:09:13.443Z,1.08
2023-02-25T12:10:13.401Z,1.25
2023-02-25T12:11:13.394Z,1.45
2023-02-25T12:12:13.414Z,1.58
2023-02-25T12:13:13.352Z,1.18
2023-02-25T12:14:13.324Z,1.47
2023-02-25T12:15:13.322Z,1.30
2023-02-25T12:16:13.339Z,1.26
2023-02-25T12:17:13.273Z,1.32
2023-02-25T12:18:13.249Z,1.33
2023-02-25T12:19:13.238Z,1.69
2023-02-25T12:20:13.232Z,1.62
2023-02-25T12:21:13.192Z,0.98
2023-02-25T12:22:13.208Z,1.32
2023-02-25T12:23:13.172Z,1.60
2023-02-25T12:24:13.151Z,0.90
2023-02-25T12:25:13.112Z,1.53
2023-02-25T12:26:13.129Z,1.25
2023-02-25T12:27:13.085Z,1.54
2023-02-25T12:28:13.054Z,1.49
2023-02-25T12:29:13.047Z,1.49
2023-02-25T12:30:13.015Z,1.39
2023-02-25T12:31:13.058Z,1.00
2023-02-25T12:32:13.019Z,1.41
2023-02-25T12:33:12.965Z,1.28
2023-02-25T12:34:12.946Z,1.34
2023-02-25T12:35:12.904Z,1.64
2023-02-25T12:36:12.894Z,1.67
2023-02-25T12:37:12.851Z,1.26
2023-02-25T12:38:12.847Z,1.34
2023-02-25T12:39:12.812Z,1.29
2023-02-25T12:40:12.771Z,1.46
2023-02-25T12:41:12.760Z,1.00
2023-02-25T12:42:12.720Z,1.18
2023-02-25T12:43:12.729Z,1.22
2023-02-25T12:44:12.692Z,0.99
2023-02-25T12:45:12.647Z,0.93
2023-02-25T12:46:12.660Z,1.12
2023-02-25T12:47:12.591Z,1.25
2023-02-25T12:48:12.574Z,0.94
2023-02-25T12:49:12.537Z,1.18
2023-02-25T12:50:12.523Z,1.17
2023-02-25T12:51:12.503Z,1.13
2023-02-25T12:52:12.472Z,1.30
2023-02-25T12:53:12.477Z,1.12
2023-02-25T12:54:12.424Z,1.28
2023-02-25T12:55:12.385Z,1.12
2023-02-25T12:56:12.359Z,1.36
2023-02-25T12:57:12.335Z,1.18
2023-02-25T12:58:12.321Z,1.69
2023-02-25T12:59:12.278Z,0.84
2023-02-25T13:00:12.250Z,0.99
2023-02-25T13:01:12.260Z,1.00
2023-02-25T13:02:12.167Z,1.18
2023-02-25T13:03:12.158Z,1.14
2023-02-25T13:04:12.185Z,1.49
2023-02-25T13:05:12.078Z,1.43
2023-02-25T13:06:12.044Z,1.33
2023-02-25T13:07:12.025Z,1.14
2023-02-25T13:08:12.020Z,1.20
2023-02-25T13:09:11.977Z,1.18
2023-02-25T13:10:11.916Z,0.98
2023-02-25T13:11:11.871Z,1.10
2023-02-25T13:12:12.614Z,1.32
2023-02-25T13:13:11.824Z,1.05
2023-02-25T13:14:11.791Z,1.04
2023-02-25T13:15:11.732Z,1.51
2023-02-25T13:16:11.727Z,1.34
2023-02-25T13:17:11.671Z,1.11
2023-02-25T13:18:11.671Z,1.12
2023-02-25T13:19:11.627Z,1.40
2023-02-25T13:20:11.604Z,1.15
2023-02-25T13:21:12.054Z,1.11
2023-02-25T13:22:11.536Z,1.11
2023-02-25T13:23:11.496Z,0.94
2023-02-25T13:24:11.506Z,1.27
2023-02-25T13:25:11.426Z,1.06
2023-02-25T13:26:11.419Z,1.50
2023-02-25T13:27:11.390Z,0.99
2023-02-25T13:28:11.348Z,1.29
2023-02-25T13:29:11.360Z,1.38
2023-02-25T13:30:11.429Z,1.15
2023-02-25T13:31:11.285Z,0.99
2023-02-25T13:32:11.377Z,0.97
2023-02-25T13:33:11.251Z,1.37
2023-02-25T13:34:11.259Z,1.19
2023-02-25T13:35:11.190Z,1.05
2023-02-25T13:36:11.184Z,1.02
2023-02-25T13:37:11.146Z,1.04
2023-02-25T13:38:11.106Z,2.03
2023-02-25T13:39:11.113Z,1.18
2023-02-25T13:40:11.155Z,1.17
2023-02-25T13:41:11.064Z,1.06
2023-02-25T13:42:11.045Z,0.91
2023-02-25T13:43:11.027Z,1.30
2023-02-25T13:44:11.041Z,1.24
2023-02-25T13:45:10.971Z,1.15
2023-02-25T13:46:11.008Z,1.25
2023-02-25T13:47:10.948Z,1.10
2023-02-25T13:48:10.925Z,1.03
2023-02-25T13:49:10.946Z,1.23
2023-02-25T13:50:10.869Z,1.05
2023-02-25T13:51:10.869Z,1.28
2023-02-25T13:52:10.830Z,1.19
2023-02-25T13:53:10.981Z,1.02
2023-02-25T13:54:10.790Z,0.99
2023-02-25T13:55:10.757Z,1.23
2023-02-25T13:56:10.750Z,1.06
2023-02-25T13:57:10.729Z,0.87
2023-02-25T13:58:10.689Z,0.91
2023-02-25T13:59:10.655Z,1.21
2023-02-25T14:00:10.619Z,1.22
2023-02-25T14:01:10.621Z,0.99
2023-02-25T14:02:10.627Z,1.09
2023-02-25T14:03:10.570Z,0.90
2023-02-25T14:04:10.538Z,1.25
2023-02-25T14:05:10.542Z,1.01
2023-02-25T14:06:10.492Z,0.87
2023-02-25T14:07:10.476Z,0.78
2023-02-25T14:08:10.465Z,0.79
2023-02-25T14:09:10.436Z,1.04
2023-02-25T14:10:10.461Z,1.19
2023-02-25T14:11:10.411Z,1.26
2023-02-25T14:12:13.010Z,1.21
2023-02-25T14:13:10.321Z,0.91
2023-02-25T14:14:10.317Z,1.12
2023-02-25T14:15:10.296Z,1.06
2023-02-25T14:16:10.297Z,0.68
2023-02-25T14:17:10.260Z,1.00
2023-02-25T14:18:10.247Z,1.10
2023-02-25T14:19:10.175Z,0.91
2023-02-25T14:20:10.174Z,0.91
2023-02-25T14:21:10.134Z,0.99
2023-02-25T14:22:10.103Z,1.17
2023-02-25T14:23:10.070Z,1.01
2023-02-25T14:24:10.062Z,0.99
2023-02-25T14:25:10.056Z,0.80
2023-02-25T14:26:10.001Z,1.15
2023-02-25T14:27:09.975Z,0.84
2023-02-25T14:28:11.383Z,1.01
2023-02-25T14:29:09.971Z,0.89
2023-02-25T14:30:09.946Z,1.25
2023-02-25T14:31:10.085Z,0.82
2023-02-25T14:32:10.049Z,1.25
2023-02-25T14:33:09.892Z,0.94
2023-02-25T14:34:09.862Z,1.17
2023-02-25T14:35:09.915Z,1.42
2023-02-25T14:36:09.923Z,1.01
2023-02-25T14:37:09.932Z,0.90
2023-02-25T14:38:09.990Z,0.89
2023-02-25T14:39:10.040Z,1.35
2023-02-25T14:40:10.081Z,1.00
2023-02-25T14:41:10.073Z,1.15
2023-02-25T14:42:10.099Z,1.17
2023-02-25T14:43:10.157Z,0.80
2023-02-25T14:44:10.169Z,0.77
2023-02-25T14:45:10.224Z,0.88